createdAt,value
2023-04-02T00:00:29.406Z,47.32
2023-04-02T00:01:29.396Z,46.80
2023-04-02T00:02:29.534Z,47.33
2023-04-02T00:03:29.435Z,47.61
2023-04-02T00:04:29.381Z,47.20
2023-04-02T00:05:29.381Z,47.19
2023-04-02T00:06:29.374Z,46.60
2023-04-02T00:07:29.367Z,46.88
2023-04-02T00:08:29.369Z,49.17
2023-04-02T00:09:29.344Z,47.15
2023-04-02T00:10:29.362Z,46.91
2023-04-02T00:11:29.345Z,48.12
2023-04-02T00:12:29.334Z,48.77
2023-04-02T00:13:29.316Z,48.09
2023-04-02T00:14:29.320Z,47.91
2023-04-02T00:15:29.309Z,49.13
2023-04-02T00:16:29.441Z,47.22
2023-04-02T00:17:29.305Z,47.12
2023-04-02T00:18:29.291Z,47.41
2023-04-02T00:19:29.281Z,46.99
2023-04-02T00:20:29.292Z,47.92
2023-04-02T00:21:29.272Z,47.67
2023-04-02T00:22:29.320Z,46.82
2023-04-02T00:23:29.252Z,46.58
2023-04-02T00:24:29.246Z,47.04
2023-04-02T00:25:29.241Z,48.84
2023-04-02T00:26:29.238Z,47.49
2023-04-02T00:27:29.243Z,46.95
2023-04-02T00:28:29.232Z,46.85
2023-04-02T00:29:29.208Z,48.17
2023-04-02T00:30:29.208Z,47.54
2023-04-02T00:31:29.223Z,47.71
2023-04-02T00:32:29.257Z,47.61
2023-04-02T00:33:29.179Z,48.06
2023-04-02T00:34:29.219Z,47.08
2023-04-02T00:35:29.219Z,47.28
2023-04-02T00:36:29.168Z,47.49
2023-04-02T00:37:29.167Z,47.00
2023-04-02T00:38:29.151Z,46.95
2023-04-02T00:39:29.158Z,47.03
2023-04-02T00:40:29.168Z,47.02
2023-04-02T00:41:29.144Z,47.58
2023-04-02T00:42:29.158Z,47.13
2023-04-02T00:43:29.124Z,46.50
2023-04-02T00:44:29.131Z,46.46
2023-04-02T00:45:29.172Z,46.68
2023-04-02T00:46:29.163Z,46.48
2023-04-02T00:47:29.161Z,46.25
2023-04-02T00:48:29.095Z,46.51
2023-04-02T00:49:29.075Z,47.61
2023-04-02T00:50:29.072Z,46.78
2023-04-02T00:51:29.064Z,47.79
2023-04-02T00:52:29.104Z,46.68
2023-04-02T00:53:29.065Z,47.80
2023-04-02T00:54:29.050Z,47.05
2023-04-02T00:55:29.035Z,48.20
2023-04-02T00:56:29.034Z,47.26
2023-04-02T00:57:29.118Z,48.11
2023-04-02T00:58:29.029Z,46.94
2023-04-02T00:59:29.019Z,47.43
2023-04-02T01:00:29.015Z,47.10
2023-04-02T01:01:29.040Z,48.74
2023-04-02T01:02:29.094Z,47.45
2023-04-02T01:03:29.318Z,47.44
2023-04-02T01:04:28.984Z,46.60
2023-04-02T01:05:28.971Z,46.55
2023-04-02T01:06:28.970Z,47.15
2023-04-02T01:07:28.969Z,46.51
2023-04-02T01:08:28.973Z,46.53
2023-04-02T01:09:28.947Z,47.36
2023-04-02T01:10:28.936Z,47.09
2023-04-02T01:11:28.942Z,46.68
2023-04-02T01:12:28.924Z,47.61
2023-04-02T01:13:28.912Z,47.56
2023-04-02T01:14:28.921Z,46.10
2023-04-02T01:15:29.045Z,48.37
2023-04-02T01:16:28.996Z,47.26
2023-04-02T01:17:28.935Z,46.57
2023-04-02T01:18:28.880Z,47.66
2023-04-02T01:19:28.883Z,46.52
2023-04-02T01:20:28.880Z,46.93
2023-04-02T01:21:28.875Z,46.69
2023-04-02T01:22:28.851Z,46.47
2023-04-02T01:23:28.856Z,46.50
2023-04-02T01:24:28.841Z,46.81
2023-04-02T01:25:28.867Z,46.52
2023-04-02T01:26:28.836Z,46.62
2023-04-02T01:27:28.809Z,46.82
2023-04-02T01:28:28.815Z,47.51
2023-04-02T01:29:28.802Z,47.53
2023-04-02T01:30:29.819Z,47.05
2023-04-02T01:31:28.845Z,47.40
2023-04-02T01:32:28.815Z,47.85
2023-04-02T01:33:28.791Z,47.22
2023-04-02T01:34:28.952Z,48.41
2023-04-02T01:35:28.766Z,46.57
2023-04-02T01:36:28.797Z,46.40
2023-04-02T01:37:28.755Z,46.33
2023-04-02T01:38:28.750Z,46.50
2023-04-02T01:39:28.759Z,47.27
2023-04-02T01:40:28.729Z,47.94
2023-04-02T01:41:28.749Z,47.40
2023-04-02T01:42:29.734Z,47.23
2023-04-02T01:43:28.709Z,46.63
2023-04-02T01:44:28.706Z,46.51
2023-04-02T01:45:28.697Z,46.83
2023-04-02T01:46:28.746Z,47.14
2023-04-02T01:47:28.736Z,47.04
2023-04-02T01:48:28.679Z,46.56
2023-04-02T01:49:28.663Z,47.21
2023-04-02T01:50:28.657Z,46.89
2023-04-02T01:51:28.708Z,46.84
2023-04-02T01:52:28.665Z,47.78
2023-04-02T01:53:28.639Z,48.35
2023-04-02T01:54:28.642Z,47.79
2023-04-02T01:55:28.638Z,48.02
2023-04-02T01:56:28.629Z,46.35
2023-04-02T01:57:28.689Z,46.61
2023-04-02T01:58:28.628Z,46.86
2023-04-02T01:59:28.596Z,47.15
2023-04-02T02:00:28.666Z,47.44
2023-04-02T02:01:28.595Z,46.59
2023-04-02T02:02:28.680Z,47.34
2023-04-02T02:03:28.607Z,47.31
2023-04-02T02:04:28.575Z,46.60
2023-04-02T02:05:28.572Z,46.45
2023-04-02T02:06:28.555Z,47.31
2023-04-02T02:07:28.571Z,46.16
2023-04-02T02:08:28.562Z,46.52
2023-04-02T02:09:28.583Z,46.70
2023-04-02T02:10:28.539Z,47.15
2023-04-02T02:11:28.527Z,46.39
2023-04-02T02:12:28.526Z,47.44
2023-04-02T02:13:28.520Z,47.40
2023-04-02T02:14:28.533Z,46.88
2023-04-02T02:15:28.513Z,46.78
2023-04-02T02:16:28.549Z,48.15
2023-04-02T02:17:28.514Z,47.42
2023-04-02T02:18:28.483Z,46.69
2023-04-02T02:19:28.492Z,46.45
2023-04-02T02:20:28.468Z,48.99
2023-04-02T02:21:28.468Z,47.15
2023-04-02T02:22:28.479Z,46.94
2023-04-02T02:23:28.464Z,46.62
2023-04-02T02:24:28.476Z,46.51
2023-04-02T02:25:28.460Z,47.02
2023-04-02T02:26:28.433Z,46.35
2023-04-02T02:27:28.429Z,46.54
2023-04-02T02:28:28.421Z,48.04
2023-04-02T02:29:28.447Z,47.07
2023-04-02T02:30:28.438Z,46.52
2023-04-02T02:31:28.465Z,46.94
2023-04-02T02:32:28.411Z,46.82
2023-04-02T02:33:28.401Z,46.97
2023-04-02T02:34:28.376Z,47.02
2023-04-02T02:35:28.393Z,47.27
2023-04-02T02:36:28.374Z,47.02
2023-04-02T02:37:28.364Z,47.87
2023-04-02T02:38:28.355Z,46.83
2023-04-02T02:39:28.350Z,46.78
2023-04-02T02:40:28.375Z,46.46
2023-04-02T02:41:29.334Z,47.75
2023-04-02T02:42:28.337Z,46.32
2023-04-02T02:43:28.325Z,46.69
2023-04-02T02:44:28.313Z,47.58
2023-04-02T02:45:28.317Z,46.61
2023-04-02T02:46:28.338Z,46.87
2023-04-02T02:47:28.435Z,46.64
2023-04-02T02:48:28.283Z,46.83
2023-04-02T02:49:28.276Z,47.21
2023-04-02T02:50:28.262Z,46.31
2023-04-02T02:51:28.299Z,47.52
2023-04-02T02:52:28.273Z,46.89
2023-04-02T02:53:28.258Z,46.63
2023-04-02T02:54:28.247Z,46.91
2023-04-02T02:55:28.235Z,47.10
2023-04-02T02:56:28.229Z,47.17
2023-04-02T02:57:28.320Z,47.11
2023-04-02T02:58:28.223Z,46.27
2023-04-02T02:59:28.220Z,46.96
2023-04-02T03:00:28.204Z,47.29
2023-04-02T03:01:28.217Z,47.16
2023-04-02T03:02:28.249Z,46.62
2023-04-02T03:03:29.286Z,46.58
2023-04-02T03:04:28.205Z,46.60
2023-04-02T03:05:28.162Z,47.94
2023-04-02T03:06:28.169Z,47.14
2023-04-02T03:07:28.156Z,46.42
2023-04-02T03:08:28.143Z,46.60
2023-04-02T03:09:28.146Z,46.70
2023-04-02T03:10:28.135Z,47.37
2023-04-02T03:11:28.133Z,47.62
2023-04-02T03:12:28.112Z,46.57
2023-04-02T03:13:28.107Z,47.60
2023-04-02T03:14:28.114Z,47.56
2023-04-02T03:15:28.145Z,46.50
2023-04-02T03:16:28.081Z,48.79
2023-04-02T03:17:28.109Z,47.30
2023-04-02T03:18:28.083Z,46.92
2023-04-02T03:19:28.104Z,47.08
2023-04-02T03:20:28.062Z,47.39
2023-04-02T03:21:28.055Z,47.23
2023-04-02T03:22:28.037Z,46.93
2023-04-02T03:23:28.061Z,47.25
2023-04-02T03:24:28.040Z,47.91
2023-04-02T03:25:28.049Z,46.82
2023-04-02T03:26:28.034Z,46.63
2023-04-02T03:27:28.014Z,47.02
2023-04-02T03:28:28.011Z,48.43
2023-04-02T03:29:27.988Z,47.35
2023-04-02T03:30:27.990Z,47.06
2023-04-02T03:31:28.045Z,48.01
2023-04-02T03:32:27.994Z,47.71
2023-04-02T03:33:27.977Z,49.56
2023-04-02T03:34:27.979Z,47.07
2023-04-02T03:35:27.961Z,46.90
2023-04-02T03:36:27.969Z,48.26
2023-04-02T03:37:27.949Z,46.70
2023-04-02T03:38:27.946Z,47.22
2023-04-02T03:39:27.923Z,47.85
2023-04-02T03:40:27.923Z,47.03
2023-04-02T03:41:27.926Z,47.30
2023-04-02T03:42:27.908Z,48.08
2023-04-02T03:43:27.901Z,47.11
2023-04-02T03:44:27.893Z,47.21
2023-04-02T03:45:27.890Z,47.38
2023-04-02T03:46:27.948Z,46.49
2023-04-02T03:47:27.925Z,48.47
2023-04-02T03:48:27.870Z,46.55
2023-04-02T03:49:27.869Z,46.24
2023-04-02T03:50:27.883Z,46.79
2023-04-02T03:51:27.847Z,47.64
2023-04-02T03:52:27.844Z,47.01
2023-04-02T03:53:27.849Z,49.25
2023-04-02T03:54:27.822Z,49.30
2023-04-02T03:55:27.845Z,46.57
2023-04-02T03:56:27.829Z,47.02
2023-04-02T03:57:27.856Z,47.58
2023-04-02T03:58:27.816Z,47.50
2023-04-02T03:59:27.841Z,50.64
2023-04-02T04:00:27.812Z,47.50
2023-04-02T04:01:27.789Z,50.02
2023-04-02T04:02:28.889Z,48.63
2023-04-02T04:03:28.766Z,47.36
2023-04-02T04:04:27.815Z,47.98
2023-04-02T04:05:27.748Z,51.12
2023-04-02T04:06:27.757Z,51.65
2023-04-02T04:07:27.736Z,51.99
2023-04-02T04:08:27.726Z,49.88
2023-04-02T04:09:27.721Z,51.53
2023-04-02T04:10:27.741Z,49.97
2023-04-02T04:11:27.749Z,50.90
2023-04-02T04:12:27.707Z,51.02
2023-04-02T04:13:27.696Z,53.13
2023-04-02T04:14:27.711Z,54.88
2023-04-02T04:15:27.695Z,53.31
2023-04-02T04:16:28.707Z,52.33
2023-04-02T04:17:27.692Z,52.52
2023-04-02T04:18:27.660Z,51.93
2023-04-02T04:19:27.734Z,53.75
2023-04-02T04:20:27.654Z,53.85
2023-04-02T04:21:27.633Z,54.61
2023-04-02T04:22:27.645Z,54.12
2023-04-02T04:23:27.624Z,53.89
2023-04-02T04:24:27.622Z,51.19
2023-04-02T04:25:27.629Z,55.65
2023-04-02T04:26:27.615Z,52.31
2023-04-02T04:27:27.597Z,53.95
2023-04-02T04:28:27.648Z,51.76
2023-04-02T04:29:27.587Z,50.09
2023-04-02T04:30:27.592Z,51.79
2023-04-02T04:31:27.586Z,48.04
2023-04-02T04:32:27.947Z,49.90
2023-04-02T04:33:27.597Z,48.96
2023-04-02T04:34:27.555Z,48.70
2023-04-02T04:35:27.621Z,47.77
2023-04-02T04:36:27.546Z,49.14
2023-04-02T04:37:27.527Z,51.56
2023-04-02T04:38:27.593Z,52.13
2023-04-02T04:39:27.521Z,52.90
2023-04-02T04:40:27.525Z,52.07
2023-04-02T04:41:27.507Z,53.41
2023-04-02T04:42:27.516Z,53.31
2023-04-02T04:43:27.518Z,51.48
2023-04-02T04:44:27.514Z,50.31
2023-04-02T04:45:27.482Z,51.22
2023-04-02T04:46:27.554Z,53.35
2023-04-02T04:47:27.522Z,52.67
2023-04-02T04:48:27.478Z,52.93
2023-04-02T04:49:27.487Z,52.64
2023-04-02T04:50:27.457Z,51.79
2023-04-02T04:51:27.453Z,50.50
2023-04-02T04:52:27.436Z,49.26
2023-04-02T04:53:27.434Z,50.38
2023-04-02T04:54:27.440Z,49.28
2023-04-02T04:55:27.428Z,50.68
2023-04-02T04:56:27.414Z,51.43
2023-04-02T04:57:27.582Z,50.70
2023-04-02T04:58:27.403Z,52.77
2023-04-02T04:59:27.425Z,52.10
2023-04-02T05:00:27.397Z,50.01
2023-04-02T05:01:27.489Z,51.74
2023-04-02T05:02:27.395Z,51.29
2023-04-02T05:03:27.373Z,51.11
2023-04-02T05:04:27.420Z,48.50
2023-04-02T05:05:27.371Z,48.89
2023-04-02T05:06:27.365Z,48.55
2023-04-02T05:07:27.355Z,48.35
2023-04-02T05:08:27.362Z,51.37
2023-04-02T05:09:28.332Z,51.13
2023-04-02T05:10:27.391Z,49.90
2023-04-02T05:11:27.416Z,48.79
2023-04-02T05:12:27.400Z,48.45
2023-04-02T05:13:27.312Z,49.09
2023-04-02T05:14:27.294Z,47.17
2023-04-02T05:15:27.302Z,47.82
2023-04-02T05:16:27.412Z,48.81
2023-04-02T05:17:27.332Z,49.99
2023-04-02T05:18:27.263Z,49.18
2023-04-02T05:19:27.264Z,49.11
2023-04-02T05:20:27.262Z,48.07
2023-04-02T05:21:27.258Z,48.71
2023-04-02T05:22:27.251Z,49.59
2023-04-02T05:23:27.250Z,48.22
2023-04-02T05:24:27.224Z,47.71
2023-04-02T05:25:27.231Z,48.09
2023-04-02T05:26:27.232Z,48.17
2023-04-02T05:27:27.227Z,50.54
2023-04-02T05:28:27.204Z,49.66
2023-04-02T05:29:27.201Z,48.83
2023-04-02T05:30:27.194Z,49.44
2023-04-02T05:31:27.255Z,50.10
2023-04-02T05:32:27.231Z,50.00
2023-04-02T05:33:27.207Z,50.41
2023-04-02T05:34:27.219Z,49.21
2023-04-02T05:35:27.192Z,48.45
2023-04-02T05:36:27.193Z,49.03
2023-04-02T05:37:27.162Z,48.13
2023-04-02T05:38:27.155Z,48.89
2023-04-02T05:39:27.142Z,48.40
2023-04-02T05:40:27.120Z,49.33
2023-04-02T05:41:27.162Z,50.97
2023-04-02T05:42:27.121Z,52.44
2023-04-02T05:43:27.132Z,48.67
2023-04-02T05:44:27.109Z,48.61
2023-04-02T05:45:27.106Z,49.67
2023-04-02T05:46:27.136Z,48.63
2023-04-02T05:47:27.105Z,48.63
2023-04-02T05:48:27.084Z,48.78
2023-04-02T05:49:27.068Z,48.40
2023-04-02T05:50:27.082Z,48.95
2023-04-02T05:51:27.070Z,48.61
2023-04-02T05:52:27.057Z,49.10
2023-04-02T05:53:27.086Z,49.64
2023-04-02T05:54:27.039Z,49.22
2023-04-02T05:55:27.031Z,49.11
2023-04-02T05:56:27.024Z,53.00
2023-04-02T05:57:39.599Z,48.86
2023-04-02T05:58:35.365Z,48.94
2023-04-02T05:59:29.018Z,48.03
2023-04-02T06:00:27.002Z,47.87
2023-04-02T06:01:27.001Z,48.55
2023-04-02T06:02:27.125Z,48.58
2023-04-02T06:03:27.141Z,49.21
2023-04-02T06:04:26.990Z,49.17
2023-04-02T06:05:26.997Z,48.94
2023-04-02T06:06:26.967Z,49.86
2023-04-02T06:07:26.960Z,50.36
2023-04-02T06:08:26.957Z,50.95
2023-04-02T06:09:26.942Z,52.32
2023-04-02T06:10:26.967Z,48.91
2023-04-02T06:11:26.936Z,51.41
2023-04-02T06:12:26.919Z,49.23
2023-04-02T06:13:26.918Z,49.22
2023-04-02T06:14:26.905Z,48.77
2023-04-02T06:15:26.914Z,49.16
2023-04-02T06:16:26.940Z,48.90
2023-04-02T06:17:26.908Z,49.61
2023-04-02T06:18:26.876Z,48.94
2023-04-02T06:19:26.871Z,50.10
2023-04-02T06:20:26.866Z,50.35
2023-04-02T06:21:26.887Z,49.41
2023-04-02T06:22:26.847Z,50.32
2023-04-02T06:23:26.914Z,49.56
2023-04-02T06:24:26.852Z,48.27
2023-04-02T06:25:26.825Z,50.07
2023-04-02T06:26:26.842Z,48.26
2023-04-02T06:27:26.821Z,49.85
2023-04-02T06:28:26.862Z,49.55
2023-04-02T06:29:26.814Z,49.43
2023-04-02T06:30:26.824Z,50.65
2023-04-02T06:31:26.813Z,51.87
2023-04-02T06:32:26.860Z,49.06
2023-04-02T06:33:26.791Z,49.86
2023-04-02T06:34:26.771Z,49.62
2023-04-02T06:35:26.791Z,49.71
2023-04-02T06:36:26.768Z,49.93
2023-04-02T06:37:26.818Z,48.73
2023-04-02T06:38:26.773Z,47.77
2023-04-02T06:39:26.744Z,47.81
2023-04-02T06:40:26.762Z,50.12
2023-04-02T06:41:26.730Z,48.25
2023-04-02T06:42:26.739Z,51.45
2023-04-02T06:43:26.723Z,49.17
2023-04-02T06:44:26.726Z,47.77
2023-04-02T06:45:26.749Z,49.77
2023-04-02T06:46:26.746Z,50.69
2023-04-02T06:47:26.732Z,49.84
2023-04-02T06:48:26.697Z,50.01
2023-04-02T06:49:26.694Z,50.52
2023-04-02T06:50:26.868Z,51.51
2023-04-02T06:51:26.689Z,50.10
2023-04-02T06:52:26.666Z,48.48
2023-04-02T06:53:26.661Z,49.43
2023-04-02T06:54:26.658Z,49.31
2023-04-02T06:55:26.682Z,49.68
2023-04-02T06:56:26.652Z,52.18
2023-04-02T06:57:26.679Z,52.21
2023-04-02T06:58:26.621Z,48.77
2023-04-02T06:59:26.706Z,53.79
2023-04-02T07:00:26.658Z,50.39
2023-04-02T07:01:26.644Z,51.55
2023-04-02T07:02:26.663Z,51.53
2023-04-02T07:03:26.597Z,50.81
2023-04-02T07:04:26.601Z,49.80
2023-04-02T07:05:26.584Z,50.82
2023-04-02T07:06:26.578Z,51.31
2023-04-02T07:07:26.579Z,49.40
2023-04-02T07:08:26.563Z,49.31
2023-04-02T07:09:26.549Z,49.66
2023-04-02T07:10:26.538Z,49.96
2023-04-02T07:11:26.540Z,52.12
2023-04-02T07:12:26.577Z,52.12
2023-04-02T07:13:26.532Z,53.18
2023-04-02T07:14:26.540Z,50.59
2023-04-02T07:15:26.514Z,51.17
2023-04-02T07:16:26.603Z,50.31
2023-04-02T07:17:26.528Z,50.61
2023-04-02T07:18:26.501Z,53.27
2023-04-02T07:19:26.502Z,53.03
2023-04-02T07:20:26.481Z,50.77
2023-04-02T07:21:26.479Z,53.05
2023-04-02T07:22:26.472Z,51.02
2023-04-02T07:23:26.479Z,50.43
2023-04-02T07:24:26.476Z,52.59
2023-04-02T07:25:26.435Z,50.80
2023-04-02T07:26:26.443Z,51.81
2023-04-02T07:27:26.438Z,52.45
2023-04-02T07:28:26.455Z,53.95
2023-04-02T07:29:26.422Z,53.02
2023-04-02T07:30:26.427Z,50.25
2023-04-02T07:31:26.448Z,52.89
2023-04-02T07:32:26.427Z,50.26
2023-04-02T07:33:26.396Z,50.75
2023-04-02T07:34:26.420Z,54.63
2023-04-02T07:35:26.387Z,53.69
2023-04-02T07:36:26.384Z,53.79
2023-04-02T07:37:26.372Z,52.23
2023-04-02T07:38:26.364Z,53.21
2023-04-02T07:39:26.371Z,51.42
2023-04-02T07:40:26.347Z,52.32
2023-04-02T07:41:26.339Z,54.57
2023-04-02T07:42:26.341Z,54.32
2023-04-02T07:43:26.323Z,51.46
2023-04-02T07:44:26.320Z,52.88
2023-04-02T07:45:26.347Z,50.56
2023-04-02T07:46:26.345Z,50.48
2023-04-02T07:47:26.328Z,52.74
2023-04-02T07:48:26.300Z,51.37
2023-04-02T07:49:26.301Z,51.29
2023-04-02T07:50:26.329Z,51.28
2023-04-02T07:51:26.278Z,53.25
2023-04-02T07:52:26.305Z,55.48
2023-04-02T07:53:26.269Z,60.46
2023-04-02T07:54:26.269Z,59.23
2023-04-02T07:55:26.266Z,59.95
2023-04-02T07:56:26.258Z,61.95
2023-04-02T07:57:26.262Z,61.58
2023-04-02T07:58:26.227Z,60.86
2023-04-02T07:59:26.245Z,60.41
2023-04-02T08:00:26.218Z,60.63
2023-04-02T08:01:26.254Z,52.78
2023-04-02T08:02:26.280Z,51.89
2023-04-02T08:03:26.282Z,50.90
2023-04-02T08:04:26.189Z,49.71
2023-04-02T08:05:26.208Z,50.17
2023-04-02T08:06:26.178Z,52.37
2023-04-02T08:07:26.165Z,50.32
2023-04-02T08:08:26.167Z,52.38
2023-04-02T08:09:26.157Z,51.58
2023-04-02T08:10:26.165Z,51.27
2023-04-02T08:11:26.201Z,48.58
2023-04-02T08:12:26.183Z,49.99
2023-04-02T08:13:26.146Z,49.39
2023-04-02T08:14:26.122Z,50.78
2023-04-02T08:15:26.132Z,49.91
2023-04-02T08:16:26.164Z,51.02
2023-04-02T08:17:26.174Z,50.38
2023-04-02T08:18:26.096Z,53.03
2023-04-02T08:19:26.100Z,52.44
2023-04-02T08:20:26.100Z,50.30
2023-04-02T08:21:26.163Z,50.80
2023-04-02T08:22:26.068Z,52.18
2023-04-02T08:23:26.096Z,53.99
2023-04-02T08:24:26.065Z,51.55
2023-04-02T08:25:26.072Z,50.59
2023-04-02T08:26:26.052Z,51.37
2023-04-02T08:27:26.040Z,51.53
2023-04-02T08:28:26.050Z,51.73
2023-04-02T08:29:26.035Z,50.38
2023-04-02T08:30:26.024Z,51.46
2023-04-02T08:31:26.068Z,50.64
2023-04-02T08:32:26.013Z,50.24
2023-04-02T08:33:26.037Z,50.21
2023-04-02T08:34:26.005Z,51.15
2023-04-02T08:35:26.048Z,50.85
2023-04-02T08:36:26.016Z,50.79
2023-04-02T08:37:25.980Z,52.63
2023-04-02T08:38:26.031Z,52.81
2023-04-02T08:39:25.962Z,50.89
2023-04-02T08:40:25.971Z,50.12
2023-04-02T08:41:25.962Z,51.55
2023-04-02T08:42:25.981Z,53.33
2023-04-02T08:43:25.949Z,50.84
2023-04-02T08:44:25.938Z,48.84
2023-04-02T08:45:25.936Z,49.86
2023-04-02T08:46:25.967Z,49.85
2023-04-02T08:47:25.991Z,50.46
2023-04-02T08:48:25.914Z,51.49
2023-04-02T08:49:25.920Z,52.42
2023-04-02T08:50:25.890Z,50.63
2023-04-02T08:51:25.882Z,50.77
2023-04-02T08:52:25.883Z,50.98
2023-04-02T08:53:25.870Z,54.67
2023-04-02T08:54:25.885Z,60.26
2023-04-02T08:55:25.862Z,62.04
2023-04-02T08:56:25.853Z,59.27
2023-04-02T08:57:25.917Z,59.52
2023-04-02T08:58:25.845Z,60.08
2023-04-02T08:59:25.826Z,59.80
2023-04-02T09:00:25.822Z,59.91
2023-04-02T09:01:25.840Z,58.54
2023-04-02T09:02:25.831Z,51.85
2023-04-02T09:03:25.796Z,53.07
2023-04-02T09:04:25.805Z,50.11
2023-04-02T09:05:25.794Z,52.43
2023-04-02T09:06:25.794Z,52.21
2023-04-02T09:07:25.766Z,51.75
2023-04-02T09:08:25.761Z,50.38
2023-04-02T09:09:25.757Z,49.91
2023-04-02T09:10:25.753Z,51.40
2023-04-02T09:11:25.795Z,51.86
2023-04-02T09:12:25.753Z,52.22
2023-04-02T09:13:25.735Z,50.26
2023-04-02T09:14:25.718Z,51.28
2023-04-02T09:15:25.742Z,51.37
2023-04-02T09:16:25.765Z,51.84
2023-04-02T09:17:25.720Z,53.23
2023-04-02T09:18:25.759Z,53.28
2023-04-02T09:19:25.692Z,51.27
2023-04-02T09:20:25.714Z,50.75
2023-04-02T09:21:25.679Z,52.52
2023-04-02T09:22:25.696Z,53.18
2023-04-02T09:23:25.693Z,54.84
2023-04-02T09:24:25.673Z,52.52
2023-04-02T09:25:25.666Z,52.17
2023-04-02T09:26:25.644Z,53.00
2023-04-02T09:27:25.666Z,52.65
2023-04-02T09:28:25.673Z,53.38
2023-04-02T09:29:25.629Z,53.21
2023-04-02T09:30:25.620Z,51.79
2023-04-02T09:31:25.626Z,51.66
2023-04-02T09:32:25.627Z,52.58
2023-04-02T09:33:26.620Z,53.14
2023-04-02T09:34:25.732Z,50.77
2023-04-02T09:35:27.022Z,52.13
2023-04-02T09:36:26.604Z,52.85
2023-04-02T09:37:25.591Z,52.17
2023-04-02T09:38:25.588Z,53.29
2023-04-02T09:39:25.563Z,53.78
2023-04-02T09:40:25.580Z,53.18
2023-04-02T09:41:25.560Z,52.51
2023-04-02T09:42:25.531Z,51.02
2023-04-02T09:43:25.597Z,52.13
2023-04-02T09:44:25.642Z,52.19
2023-04-02T09:45:25.516Z,53.18
2023-04-02T09:46:25.543Z,53.53
2023-04-02T09:47:25.542Z,53.33
2023-04-02T09:48:25.505Z,50.86
2023-04-02T09:49:25.601Z,52.03
2023-04-02T09:50:25.479Z,53.62
2023-04-02T09:51:25.487Z,52.87
2023-04-02T09:52:25.474Z,52.53
2023-04-02T09:53:25.584Z,53.28
2023-04-02T09:54:25.578Z,51.69
2023-04-02T09:55:25.447Z,52.82
2023-04-02T09:56:25.452Z,53.81
2023-04-02T09:57:25.454Z,51.11
2023-04-02T09:58:25.428Z,52.49
2023-04-02T09:59:25.430Z,52.58
2023-04-02T10:00:41.663Z,53.40
2023-04-02T10:01:27.489Z,56.50
2023-04-02T10:02:25.501Z,56.64
2023-04-02T10:03:25.422Z,56.80
2023-04-02T10:04:26.454Z,53.94
2023-04-02T10:05:39.364Z,54.64
2023-04-02T10:06:27.363Z,53.11
2023-04-02T10:07:25.359Z,53.72
2023-04-02T10:08:25.374Z,52.80
2023-04-02T10:09:25.369Z,54.38
2023-04-02T10:10:26.370Z,54.42
2023-04-02T10:11:28.791Z,53.37
2023-04-02T10:12:27.339Z,52.49
2023-04-02T10:13:25.316Z,52.72
2023-04-02T10:14:25.307Z,52.32
2023-04-02T10:15:25.328Z,52.56
2023-04-02T10:16:26.966Z,52.46
2023-04-02T10:17:26.329Z,52.10
2023-04-02T10:18:25.288Z,51.96
2023-04-02T10:19:25.285Z,52.11
2023-04-02T10:20:25.289Z,54.09
2023-04-02T10:21:25.270Z,52.79
2023-04-02T10:22:25.274Z,53.81
2023-04-02T10:23:25.278Z,53.33
2023-04-02T10:24:25.238Z,53.01
2023-04-02T10:25:26.247Z,52.32
2023-04-02T10:26:25.238Z,52.62
2023-04-02T10:27:25.283Z,51.14
2023-04-02T10:28:25.236Z,52.03
2023-04-02T10:29:25.217Z,52.26
2023-04-02T10:30:25.204Z,52.98
2023-04-02T10:31:25.256Z,51.19
2023-04-02T10:32:26.239Z,53.02
2023-04-02T10:33:25.188Z,52.14
2023-04-02T10:34:25.181Z,51.85
2023-04-02T10:35:25.233Z,55.31
2023-04-02T10:36:25.167Z,52.51
2023-04-02T10:37:25.149Z,53.30
2023-04-02T10:38:25.195Z,53.29
2023-04-02T10:39:26.149Z,53.27
2023-04-02T10:40:25.126Z,52.50
2023-04-02T10:41:25.128Z,53.67
2023-04-02T10:42:25.117Z,52.08
2023-04-02T10:43:25.180Z,53.66
2023-04-02T10:44:25.128Z,52.51
2023-04-02T10:45:25.096Z,51.66
2023-04-02T10:46:25.591Z,51.84
2023-04-02T10:47:26.088Z,52.93
2023-04-02T10:48:25.159Z,51.08
2023-04-02T10:49:25.120Z,53.55
2023-04-02T10:50:25.070Z,53.57
2023-04-02T10:51:25.052Z,53.19
2023-04-02T10:52:25.063Z,53.23
2023-04-02T10:53:25.067Z,51.39
2023-04-02T10:54:25.046Z,52.38
2023-04-02T10:55:25.037Z,53.15
2023-04-02T10:56:25.026Z,53.08
2023-04-02T10:57:25.122Z,52.71
2023-04-02T10:58:25.035Z,52.37
2023-04-02T10:59:25.030Z,52.30
2023-04-02T11:00:25.001Z,51.69
2023-04-02T11:01:25.025Z,53.29
2023-04-02T11:02:25.070Z,52.84
2023-04-02T11:03:25.065Z,51.59
2023-04-02T11:04:24.987Z,52.76
2023-04-02T11:05:24.964Z,51.27
2023-04-02T11:06:24.968Z,51.71
2023-04-02T11:07:24.950Z,51.49
2023-04-02T11:08:24.950Z,52.98
2023-04-02T11:09:24.966Z,52.93
2023-04-02T11:10:24.933Z,52.15
2023-04-02T11:11:24.920Z,53.35
2023-04-02T11:12:24.926Z,53.74
2023-04-02T11:13:24.916Z,53.97
2023-04-02T11:14:24.924Z,52.11
2023-04-02T11:15:24.895Z,53.79
2023-04-02T11:16:24.960Z,52.73
2023-04-02T11:17:24.907Z,55.85
2023-04-02T11:18:24.906Z,54.84
2023-04-02T11:19:24.873Z,53.81
2023-04-02T11:20:24.889Z,51.42
2023-04-02T11:21:24.871Z,52.70
2023-04-02T11:22:24.856Z,51.87
2023-04-02T11:23:24.854Z,52.95
2023-04-02T11:24:24.838Z,52.05
2023-04-02T11:25:24.849Z,54.07
2023-04-02T11:26:24.850Z,54.04
2023-04-02T11:27:24.836Z,51.79
2023-04-02T11:28:25.161Z,51.20
2023-04-02T11:29:24.793Z,53.53
2023-04-02T11:30:24.803Z,53.72
2023-04-02T11:31:24.849Z,53.59
2023-04-02T11:32:24.806Z,54.58
2023-04-02T11:33:35.916Z,52.13
2023-04-02T11:34:26.789Z,52.22
2023-04-02T11:35:24.761Z,53.23
2023-04-02T11:36:24.810Z,53.65
2023-04-02T11:37:24.745Z,52.55
2023-04-02T11:38:24.757Z,53.58
2023-04-02T11:39:24.745Z,51.88
2023-04-02T11:40:24.762Z,51.97
2023-04-02T11:41:24.756Z,52.60
2023-04-02T11:42:24.716Z,53.41
2023-04-02T11:43:24.707Z,53.96
2023-04-02T11:44:24.709Z,53.56
2023-04-02T11:45:24.687Z,52.21
2023-04-02T11:46:24.742Z,52.98
2023-04-02T11:47:24.717Z,54.31
2023-04-02T11:48:24.683Z,53.28
2023-04-02T11:49:24.668Z,51.44
2023-04-02T11:50:24.671Z,52.43
2023-04-02T11:51:24.657Z,52.89
2023-04-02T11:52:24.731Z,52.46
2023-04-02T11:53:24.683Z,52.75
2023-04-02T11:54:24.632Z,51.96
2023-04-02T11:55:24.621Z,52.13
2023-04-02T11:56:24.614Z,51.85
2023-04-02T11:57:24.664Z,54.50
2023-04-02T11:58:24.597Z,52.52
2023-04-02T11:59:24.589Z,51.88
2023-04-02T12:00:24.610Z,52.10
2023-04-02T12:01:24.578Z,53.27
2023-04-02T12:02:24.673Z,51.41
2023-04-02T12:03:24.586Z,50.21
2023-04-02T12:04:24.564Z,51.66
2023-04-02T12:05:24.575Z,52.66
2023-04-02T12:06:24.537Z,51.63
2023-04-02T12:07:24.536Z,51.32
2023-04-02T12:08:24.534Z,51.46
2023-04-02T12:09:24.539Z,52.29
2023-04-02T12:10:24.535Z,52.25
2023-04-02T12:11:24.512Z,52.13
2023-04-02T12:12:24.509Z,52.50
2023-04-02T12:13:24.500Z,53.18
2023-04-02T12:14:24.524Z,53.54
2023-04-02T12:15:24.482Z,53.20
2023-04-02T12:16:24.548Z,51.48
2023-04-02T12:17:24.495Z,53.52
2023-04-02T12:18:24.526Z,53.80
2023-04-02T12:19:24.455Z,52.93
2023-04-02T12:20:24.447Z,52.53
2023-04-02T12:21:24.482Z,51.69
2023-04-02T12:22:24.439Z,53.19
2023-04-02T12:23:24.432Z,51.97
2023-04-02T12:24:24.428Z,50.39
2023-04-02T12:25:24.421Z,51.08
2023-04-02T12:26:24.464Z,51.02
2023-04-02T12:27:24.422Z,50.95
2023-04-02T12:28:24.435Z,51.25
2023-04-02T12:29:24.380Z,52.13
2023-04-02T12:30:24.414Z,52.03
2023-04-02T12:31:24.453Z,52.59
2023-04-02T12:32:24.422Z,53.00
2023-04-02T12:33:24.375Z,52.16
2023-04-02T12:34:24.358Z,52.64
2023-04-02T12:35:24.362Z,51.57
2023-04-02T12:36:24.349Z,51.93
2023-04-02T12:37:24.331Z,51.73
2023-04-02T12:38:24.337Z,54.36
2023-04-02T12:39:25.812Z,53.34
2023-04-02T12:40:25.326Z,53.67
2023-04-02T12:41:24.457Z,52.73
2023-04-02T12:42:24.300Z,51.88
2023-04-02T12:43:24.324Z,52.05
2023-04-02T12:44:24.323Z,51.75
2023-04-02T12:45:24.696Z,52.55
2023-04-02T12:46:24.337Z,53.55
2023-04-02T12:47:24.272Z,51.79
2023-04-02T12:48:24.267Z,51.40
2023-04-02T12:49:24.261Z,50.47
2023-04-02T12:50:24.247Z,50.94
2023-04-02T12:51:25.004Z,49.92
2023-04-02T12:52:24.237Z,49.99